Time;durP1;ratioP1;P1;durP2;ratioP2;P2;SDS_P1;SDS_P2;PMS_P1;PMS_P2;Temp;Humidity;BMP_temperature;BMP_pressure;BME280_temperature;BME280_humidity;BME280_pressure;Samples;Min_cycle;Max_cycle;Signal;HPM_P1;HPM_P2
2023/07/26 04:58:18;;;;;;;8.85;2.95;;;;;;;21.18;74.61;99844.13;6213057;22;20201;-88
2023/07/26 05:01:13;;;;;;;7.00;3.22;;;;;;;21.21;75.69;99846.09;6293696;22;20356;-89
2023/07/26 05:04:07;;;;;;;11.10;2.90;;;;;;;21.37;74.99;99850.31;6293597;22;20070;-89
2023/07/26 05:07:01;;;;;;;6.50;2.28;;;;;;;21.81;73.82;99853.03;6297141;22;20018;-89
2023/07/26 05:09:53;;;;;;;4.70;3.20;;;;;;;21.70;72.71;99863.41;6295647;22;20025;-90
2023/07/26 05:12:48;;;;;;;7.35;2.65;;;;;;;21.62;74.58;99859.16;6296816;22;20022;-89
2023/07/26 05:15:43;;;;;;;6.45;3.30;;;;;;;21.61;73.59;99860.34;6297872;22;20022;-89
2023/07/26 05:18:35;;;;;;;7.28;3.20;;;;;;;21.67;74.77;99867.81;6296232;22;20016;-88
2023/07/26 05:21:30;;;;;;;6.07;3.47;;;;;;;21.85;74.32;99875.91;6295536;22;20029;-88
2023/07/26 05:24:22;;;;;;;8.55;3.95;;;;;;;21.76;74.19;99872.84;6294705;22;20018;-90
2023/07/26 05:27:17;;;;;;;5.25;3.25;;;;;;;21.81;73.81;99880.69;6292543;22;20018;-90
2023/07/26 05:30:12;;;;;;;6.70;3.08;;;;;;;21.94;72.17;99879.00;6282755;22;20484;-90
2023/07/26 05:33:04;;;;;;;10.65;3.78;;;;;;;22.18;71.64;99888.25;6292711;22;20610;-90
2023/07/26 05:35:59;;;;;;;9.77;3.50;;;;;;;22.46;71.00;99881.53;6291907;22;20026;-89
2023/07/26 05:38:54;;;;;;;34.70;5.25;;;;;;;22.70;69.08;99888.75;6290547;22;20018;-88
2023/07/26 05:41:48;;;;;;;27.40;4.07;;;;;;;22.94;68.07;99895.16;6293155;22;20022;-90
2023/07/26 05:44:43;;;;;;;10.43;3.40;;;;;;;23.18;67.93;99888.44;6292609;22;20022;-90
2023/07/26 05:47:32;;;;;;;6.90;2.53;;;;;;;23.21;68.29;99892.38;6293941;22;20018;-90
2023/07/26 05:50:27;;;;;;;8.00;3.58;;;;;;;23.32;68.64;99890.19;6294328;22;20658;-90
2023/07/26 05:53:22;;;;;;;8.27;2.22;;;;;;;23.41;68.17;99907.13;6296427;22;20468;-87
2023/07/26 05:56:14;;;;;;;4.80;2.80;;;;;;;23.66;65.86;99906.72;6296354;22;20041;-88
2023/07/26 05:59:03;;;;;;;8.15;2.55;;;;;;;23.75;65.09;99906.94;6290610;22;20018;-88
2023/07/26 06:01:58;;;;;;;7.18;2.50;;;;;;;23.69;64.55;99914.97;6294618;22;20018;-87
2023/07/26 06:04:53;;;;;;;8.77;2.38;;;;;;;23.63;64.89;99910.31;6292654;22;20030;-88
2023/07/26 06:07:48;;;;;;;6.15;2.50;;;;;;;23.79;64.66;99915.97;6291307;22;20018;-88
2023/07/26 06:10:42;;;;;;;7.10;2.42;;;;;;;23.83;63.57;99917.50;6292655;22;20030;-86
2023/07/26 06:13:37;;;;;;;5.32;2.88;;;;;;;23.87;63.36;99932.09;6291908;22;20022;-88
2023/07/26 06:16:29;;;;;;;5.30;2.33;;;;;;;24.06;63.49;99933.34;6293445;22;20018;-89
2023/07/26 06:19:21;;;;;;;8.35;2.58;;;;;;;24.16;62.65;99937.13;6293814;22;20026;-89
2023/07/26 06:22:15;;;;;;;2.38;1.75;;;;;;;24.08;61.24;99938.47;6295144;22;20022;-89
2023/07/26 06:25:09;;;;;;;11.32;2.78;;;;;;;24.24;60.57;99952.47;6294895;22;20066;-89
2023/07/26 06:28:01;;;;;;;10.40;2.67;;;;;;;24.11;60.74;99957.06;6292652;22;20014;-88
2023/07/26 06:30:56;;;;;;;3.35;2.05;;;;;;;24.32;59.41;99953.91;6296035;22;20041;-89
2023/07/26 06:33:50;;;;;;;17.52;2.72;;;;;;;24.71;60.48;99953.13;6296344;22;20345;-89
2023/07/26 06:36:38;;;;;;;4.05;1.65;;;;;;;24.77;60.57;99959.75;6296911;22;20018;-89
2023/07/26 06:39:32;;;;;;;5.82;2.00;;;;;;;25.16;59.05;99961.69;6296329;22;20042;-89
2023/07/26 06:42:27;;;;;;;4.28;2.05;;;;;;;25.72;57.38;99969.91;6297779;22;20026;-87
2023/07/26 06:45:19;;;;;;;11.38;2.90;;;;;;;26.51;54.48;99970.22;6298322;22;20022;-86
2023/07/26 06:48:13;;;;;;;6.38;2.25;;;;;;;26.43;52.29;99984.78;6290651;22;20338;-87
2023/07/26 06:51:11;;;;;;;5.90;2.00;;;;;;;26.87;51.98;99980.38;6292105;22;20025;-87
2023/07/26 06:54:06;;;;;;;3.28;2.67;;;;;;;27.26;49.45;99979.16;6292115;22;20021;-86
2023/07/26 06:57:00;;;;;;;4.50;2.45;;;;;;;27.87;49.47;99975.97;6293848;22;20038;-86
2023/07/26 06:59:50;;;;;;;5.03;2.10;;;;;;;28.72;44.89;99981.38;6284100;22;20018;-86
2023/07/26 07:02:40;;;;;;;3.03;1.80;;;;;;;29.77;43.34;99984.78;6295013;22;20018;-86
2023/07/26 07:05:35;;;;;;;3.05;1.80;;;;;;;30.03;43.60;99990.13;6293543;22;20021;-86
2023/07/26 07:08:30;;;;;;;6.25;2.45;;;;;;;28.99;44.30;99989.16;6289691;22;20023;-85
2023/07/26 07:11:24;;;;;;;5.05;1.92;;;;;;;27.41;46.29;99988.66;6292325;22;20022;-85
2023/07/26 07:14:20;;;;;;;8.52;2.10;;;;;;;26.55;51.67;99992.41;6292468;22;20019;-87
2023/07/26 07:17:14;;;;;;;31.17;5.97;;;;;;;26.13;55.25;100005.47;6304450;22;20014;-88
2023/07/26 07:20:07;;;;;;;;;;;;;;;26.00;55.34;100008.19;6294345;22;20066;-85
2023/07/26 07:23:01;;;;;;;7.38;1.77;;;;;;;25.82;54.64;100005.06;6304597;22;19911;-88
2023/07/26 07:25:53;;;;;;;;;;;;;;;25.80;54.59;100010.31;6303864;22;20488;-84
2023/07/26 07:28:46;;;;;;;4.28;1.33;;;;;;;25.51;53.35;100002.59;6298659;22;20358;-88
2023/07/26 07:31:40;;;;;;;2.85;1.92;;;;;;;25.47;51.98;100009.47;6297012;22;20070;-88
2023/07/26 07:34:35;;;;;;;3.70;1.52;;;;;;;25.33;51.75;100012.59;6294971;22;20018;-89
2023/07/26 07:37:26;;;;;;;1.77;1.15;;;;;;;25.27;49.68;100012.31;6294706;22;20022;-88
2023/07/26 07:40:20;;;;;;;6.80;1.30;;;;;;;25.47;52.15;100015.81;6292717;22;20484;-88
2023/07/26 07:43:15;;;;;;;5.03;1.38;;;;;;;25.48;51.28;100016.63;6293735;22;20026;-88
2023/07/26 07:46:07;;;;;;;6.13;1.35;;;;;;;25.41;52.45;100011.19;6294145;22;20026;-88
2023/07/26 07:49:02;;;;;;;2.65;1.10;;;;;;;25.44;52.68;100024.28;6294776;22;20022;-86
2023/07/26 07:51:54;;;;;;;3.85;1.27;;;;;;;25.48;51.36;100022.97;6296171;22;20048;-88
2023/07/26 07:54:49;;;;;;;7.35;1.20;;;;;;;25.49;50.11;100029.31;6295302;22;20021;-88
2023/07/26 07:57:41;;;;;;;;;;;;;;;25.60;51.87;100040.25;6296602;22;20014;-86
2023/07/26 08:00:33;;;;;;;6.43;1.23;;;;;;;25.66;51.96;100041.28;6285643;22;19907;-88
2023/07/26 08:03:28;;;;;;;2.92;1.35;;;;;;;25.60;52.14;100035.44;6293912;22;20022;-88
2023/07/26 08:06:22;;;;;;;2.63;1.15;;;;;;;25.57;51.50;100046.66;6294566;22;20046;-88
2023/07/26 08:09:14;;;;;;;3.95;1.38;;;;;;;25.63;50.37;100044.94;6287563;22;20026;-88
2023/07/26 08:12:06;;;;;;;2.15;1.00;;;;;;;25.65;51.26;100048.09;6294215;22;20018;-88
2023/07/26 08:15:01;;;;;;;1.02;0.77;;;;;;;25.62;50.06;100038.56;6293881;22;20022;-87
2023/07/26 08:17:53;;;;;;;7.03;1.13;;;;;;;25.64;50.42;100052.88;6293517;22;20014;-87
2023/07/26 08:20:45;;;;;;;5.90;1.35;;;;;;;25.69;50.86;100052.34;6293216;22;20026;-87
2023/07/26 08:23:39;;;;;;;2.70;0.85;;;;;;;25.76;51.13;100046.59;6294596;22;20018;-87
2023/07/26 08:26:29;;;;;;;4.70;1.10;;;;;;;25.78;50.42;100054.53;6292798;22;20030;-88
2023/07/26 08:29:23;;;;;;;4.75;1.23;;;;;;;25.78;51.30;100049.75;6292595;22;20018;-88
2023/07/26 08:32:18;;;;;;;5.28;1.10;;;;;;;25.90;51.84;100042.69;6294225;22;20026;-88
2023/07/26 08:35:13;;;;;;;1.98;1.10;;;;;;;25.88;52.04;100045.91;6294114;22;20038;-87
2023/07/26 08:38:07;;;;;;;2.55;1.08;;;;;;;25.81;50.01;100048.06;6291923;22;20022;-88
2023/07/26 08:41:02;;;;;;;2.47;1.00;;;;;;;25.91;51.35;100049.81;6293883;22;20030;-87
2023/07/26 08:43:58;;;;;;;2.33;0.93;;;;;;;25.93;50.88;100058.53;6293130;22;20042;-88
2023/07/26 08:46:53;;;;;;;3.40;1.20;;;;;;;25.95;51.50;100061.69;6294188;22;20022;-87
2023/07/26 08:49:43;;;;;;;6.60;1.42;;;;;;;25.97;50.96;100051.66;6292352;22;20022;-87
2023/07/26 08:52:39;;;;;;;2.38;0.80;;;;;;;26.12;50.61;100056.84;6293812;22;20460;-88
2023/07/26 08:55:34;;;;;;;3.65;1.05;;;;;;;26.11;49.70;100058.84;6294135;22;20021;-88
2023/07/26 08:58:24;;;;;;;1.25;0.90;;;;;;;26.15;49.20;100056.00;6292273;22;20014;-87
2023/07/26 09:01:16;;;;;;;2.30;0.70;;;;;;;26.17;49.94;100059.91;6294111;22;20022;-88
2023/07/26 09:04:11;;;;;;;2.00;0.95;;;;;;;26.08;47.73;100054.16;6292390;22;20468;-87
2023/07/26 09:07:06;;;;;;;1.35;0.85;;;;;;;26.15;48.87;100065.16;6291814;22;20022;-87
2023/07/26 09:09:59;;;;;;;0.88;0.50;;;;;;;26.25;48.00;100072.47;6284386;22;20026;-88
2023/07/26 09:12:54;;;;;;;1.13;0.70;;;;;;;26.17;45.54;100068.25;6293731;22;20030;-87
2023/07/26 09:15:47;;;;;;;1.58;0.80;;;;;;;26.29;49.29;100075.16;6292968;22;20349;-87
2023/07/26 09:18:40;;;;;;;1.88;0.80;;;;;;;26.29;50.20;100081.53;6290201;22;20018;-87
2023/07/26 09:21:33;;;;;;;0.98;0.63;;;;;;;26.34;50.17;100071.84;6292297;22;20022;-88
2023/07/26 09:24:33;;;;;;;2.63;0.88;;;;;;;26.31;49.40;100073.50;6288832;22;20019;-88
2023/07/26 09:27:25;;;;;;;2.58;0.75;;;;;;;26.39;50.09;100074.09;6288741;22;20027;-88
2023/07/26 09:30:24;;;;;;;2.25;1.20;;;;;;;26.36;49.28;100078.53;6289341;22;20070;-88
2023/07/26 09:33:17;;;;;;;2.35;0.95;;;;;;;26.39;47.18;100077.69;6291402;22;20026;-87
2023/07/26 09:36:09;;;;;;;1.77;0.93;;;;;;;26.47;46.68;100077.47;6292295;22;20026;-87
2023/07/26 09:39:05;;;;;;;5.00;0.93;;;;;;;26.48;45.03;100079.03;6287062;22;20018;-87
2023/07/26 09:42:10;;;;;;;6.68;1.13;;;;;;;26.50;47.76;100080.19;6291992;22;20022;-87
2023/07/26 09:45:05;;;;;;;4.43;0.80;;;;;;;26.60;46.77;100084.69;6292823;22;20026;-87
2023/07/26 09:48:09;;;;;;;1.40;0.80;;;;;;;26.63;47.59;100074.66;6291291;22;20394;-87
2023/07/26 09:51:09;;;;;;;2.88;0.80;;;;;;;26.63;47.23;100069.06;6293089;22;20040;-88
2023/07/26 09:54:05;;;;;;;3.63;0.70;;;;;;;26.77;47.20;100077.03;6291744;22;20018;-87
2023/07/26 09:57:01;;;;;;;1.13;0.70;;;;;;;26.76;46.43;100072.72;6292112;22;20018;-87
2023/07/26 09:59:58;;;;;;;3.03;0.82;;;;;;;26.81;46.76;100074.97;6284725;22;20038;-87
2023/07/26 10:02:53;;;;;;;2.78;0.95;;;;;;;26.60;47.75;100067.97;6293772;22;20022;-87
2023/07/26 10:05:53;;;;;;;2.05;0.68;;;;;;;26.63;45.85;100067.06;6293711;22;20037;-87
2023/07/26 10:08:45;;;;;;;2.67;1.10;;;;;;;26.78;46.56;100065.44;6293555;22;20022;-87
2023/07/26 10:11:40;;;;;;;1.65;0.95;;;;;;;26.81;45.78;100061.00;6293495;22;20066;-87
2023/07/26 10:14:35;;;;;;;1.20;0.75;;;;;;;26.88;46.24;100074.00;6295107;22;20025;-87
2023/07/26 10:17:28;;;;;;;0.88;0.65;;;;;;;26.89;43.37;100076.34;6293316;22;20033;-87
2023/07/26 10:20:23;;;;;;;4.28;0.80;;;;;;;27.06;41.88;100083.44;6293921;22;20025;-88
2023/07/26 10:23:18;;;;;;;2.28;0.88;;;;;;;27.17;42.78;100080.34;6294506;22;20022;-87
2023/07/26 10:26:09;;;;;;;1.48;0.80;;;;;;;27.22;41.56;100079.78;6292461;22;20034;-87
2023/07/26 10:28:59;;;;;;;4.15;1.30;;;;;;;27.16;44.03;100076.75;6288574;22;20023;-87
2023/07/26 10:32:01;;;;;;;5.65;1.13;;;;;;;27.20;43.77;100080.22;6292594;22;20018;-87
2023/07/26 10:35:03;;;;;;;2.72;0.70;;;;;;;27.20;44.22;100090.59;6293430;22;20579;-87
2023/07/26 10:37:59;;;;;;;5.93;0.90;;;;;;;27.07;44.00;100084.97;6292405;22;20066;-88
2023/07/26 10:40:48;;;;;;;0.82;0.50;;;;;;;27.12;41.33;100080.88;6292534;22;20030;-88
2023/07/26 10:43:46;;;;;;;3.42;0.60;;;;;;;27.28;40.63;100085.59;6294973;22;20022;-87
2023/07/26 10:47:02;;;;;;;2.10;0.68;;;;;;;27.37;40.18;100074.56;6293387;22;20022;-88
2023/07/26 10:49:57;;;;;;;0.75;0.40;;;;;;;27.48;39.23;100080.59;6292328;22;20022;-87
2023/07/26 10:52:54;;;;;;;3.13;0.50;;;;;;;27.37;40.62;100080.13;6295765;22;20022;-88
2023/07/26 10:55:52;;;;;;;1.85;0.70;;;;;;;27.26;42.20;100086.03;6294069;22;20074;-88
2023/07/26 10:59:09;;;;;;;1.10;0.10;;;;;;;27.32;33.45;100081.47;6291051;22;20018;-87
2023/07/26 11:02:04;;;;;;;8.77;0.68;;;;;;;27.38;40.20;100078.91;6282201;22;20021;-88
2023/07/26 11:04:58;;;;;;;0.63;0.30;;;;;;;27.26;39.95;100090.84;6293939;22;20532;-88
2023/07/26 11:08:06;;;;;;;3.33;0.40;;;;;;;26.92;42.50;100083.06;6295164;22;20026;-87
2023/07/26 11:10:58;;;;;;;0.47;0.40;;;;;;;26.91;42.56;100082.28;6293528;22;20018;-88
2023/07/26 11:13:53;;;;;;;1.08;0.20;;;;;;;26.94;41.12;100092.53;6293006;22;20030;-87
2023/07/26 11:16:42;;;;;;;2.50;0.30;;;;;;;26.96;40.32;100084.53;6290383;22;20643;-87
2023/07/26 11:19:46;;;;;;;0.55;0.40;;;;;;;26.92;40.42;100081.03;6292462;22;20026;-89
2023/07/26 11:22:39;;;;;;;3.40;0.10;;;;;;;26.86;39.39;100077.22;6293878;22;20034;-88
2023/07/26 11:25:36;;;;;;;3.22;0.20;;;;;;;26.88;38.77;100074.00;6292802;22;20366;-88
2023/07/26 11:28:31;;;;;;;1.10;0.20;;;;;;;26.83;40.14;100080.88;6292139;22;20019;-87
2023/07/26 11:31:26;;;;;;;0.85;0.10;;;;;;;26.95;39.16;100082.16;6293551;22;20030;-87
2023/07/26 11:34:24;;;;;;;0.30;0.10;;;;;;;27.01;39.38;100081.19;6290776;22;20022;-86
2023/07/26 11:37:16;;;;;;;0.30;0.13;;;;;;;27.08;38.97;100080.19;6290056;22;20022;-86
2023/07/26 11:40:12;;;;;;;1.15;0.20;;;;;;;27.07;38.70;100082.19;6281675;22;20042;-88
2023/07/26 11:43:07;;;;;;;2.17;0.95;;;;;;;27.09;37.50;100073.38;6289774;22;20019;-88
2023/07/26 11:46:00;;;;;;;1.65;0.25;;;;;;;27.21;35.97;100076.22;6290229;22;20354;-87
2023/07/26 11:48:55;;;;;;;3.00;0.35;;;;;;;27.21;38.83;100072.63;6283891;22;20023;-87
2023/07/26 11:51:45;;;;;;;;;;;;;;;27.18;37.46;100071.50;6290187;22;20030;-87
2023/07/26 11:54:37;;;;;;;0.63;0.20;;;;;;;27.19;37.63;100069.50;6290499;22;20249;-87
2023/07/26 11:57:31;;;;;;;0.95;0.20;;;;;;;27.20;38.21;100066.25;6289626;22;20038;-87
2023/07/26 12:00:26;;;;;;;0.25;0.10;;;;;;;27.17;36.19;100071.97;6282418;22;20042;-87
2023/07/26 12:03:18;;;;;;;3.03;0.10;;;;;;;27.23;37.36;100067.38;6290636;22;20027;-87
2023/07/26 12:06:10;;;;;;;0.10;0.10;;;;;;;27.26;38.01;100071.28;6289634;22;20034;-87
2023/07/26 12:09:14;;;;;;;1.27;0.10;;;;;;;27.20;37.01;100073.84;6285315;22;20031;-87
2023/07/26 12:12:09;;;;;;;0.43;0.10;;;;;;;27.16;38.10;100081.56;6289312;22;20019;-87
2023/07/26 12:15:01;;;;;;;;;;;;;;;27.14;37.68;100081.22;6291167;22;20358;-87
2023/07/26 12:18:06;;;;;;;0.20;0.00;;;;;;;27.10;38.45;100084.09;6289968;22;19908;-87
2023/07/26 12:21:01;;;;;;;2.45;0.50;;;;;;;27.07;38.75;100073.81;6289585;22;20350;-86
2023/07/26 12:24:03;;;;;;;0.47;0.43;;;;;;;27.04;37.57;100085.09;6290522;22;20022;-87
2023/07/26 12:27:01;;;;;;;0.10;0.10;;;;;;;27.15;38.70;100079.97;6289561;22;20019;-87
2023/07/26 12:29:55;;;;;;;0.90;0.20;;;;;;;27.16;37.90;100076.75;6282730;22;20019;-87
2023/07/26 12:32:47;;;;;;;1.27;0.10;;;;;;;27.14;38.57;100079.19;6291298;22;20021;-86
2023/07/26 12:35:44;;;;;;;1.15;0.35;;;;;;;27.12;38.67;100080.88;6290308;22;20018;-86
2023/07/26 12:38:36;;;;;;;0.43;0.13;;;;;;;27.13;38.11;100082.44;6287897;22;20019;-85
2023/07/26 12:41:25;;;;;;;;;;;;;;;27.04;38.05;100076.72;6290743;22;20350;-87
2023/07/26 12:44:21;;;;;;;4.28;0.35;;;;;;;27.03;35.27;100077.94;6289671;22;19907;-86
2023/07/26 12:47:13;;;;;;;0.63;0.17;;;;;;;27.13;37.67;100080.41;6291704;22;20022;-87
2023/07/26 12:50:08;;;;;;;0.00;0.00;;;;;;;27.13;38.11;100082.44;6289301;22;20023;-87
2023/07/26 12:53:02;;;;;;;0.05;0.00;;;;;;;27.15;37.73;100080.78;6289612;22;20027;-86
2023/07/26 12:55:57;;;;;;;0.32;0.10;;;;;;;27.23;36.10;100076.53;6290983;22;20022;-87
2023/07/26 12:58:49;;;;;;;1.30;0.20;;;;;;;27.20;37.59;100071.84;6290232;22;20023;-86
2023/07/26 13:01:42;;;;;;;0.10;0.03;;;;;;;27.21;37.55;100078.22;6289300;22;20019;-87
2023/07/26 13:04:36;;;;;;;7.40;0.22;;;;;;;27.26;36.85;100074.09;6290192;22;20027;-85
2023/07/26 13:07:29;;;;;;;;;;;;;;;27.34;37.49;100079.00;6290003;22;20549;-84
2023/07/26 13:10:24;;;;;;;3.05;0.30;;;;;;;27.19;36.82;100081.44;6288946;22;19915;-84
2023/07/26 13:13:16;;;;;;;6.38;0.82;;;;;;;27.17;37.50;100078.31;6290023;22;20022;-84
2023/07/26 13:16:09;;;;;;;11.50;0.93;;;;;;;27.26;39.04;100085.25;6288124;22;20023;-85
2023/07/26 13:19:07;;;;;;;8.38;0.63;;;;;;;27.23;36.20;100084.91;6287970;22;20019;-86
2023/07/26 13:21:59;;;;;;;3.75;0.32;;;;;;;27.20;39.51;100091.38;6290192;22;20023;-86
2023/07/26 13:24:53;;;;;;;2.47;0.32;;;;;;;27.23;38.73;100081.31;6289252;22;20492;-86
2023/07/26 13:27:45;;;;;;;1.08;0.20;;;;;;;27.21;39.14;100073.41;6288341;22;20023;-86
2023/07/26 13:30:40;;;;;;;1.73;0.15;;;;;;;27.33;38.13;100073.88;6289383;22;20038;-86
2023/07/26 13:33:34;;;;;;;0.25;0.15;;;;;;;27.25;37.78;100087.25;6290382;22;20023;-87
2023/07/26 13:36:29;;;;;;;3.90;0.35;;;;;;;27.20;38.12;100085.81;6289345;22;20019;-86
2023/07/26 13:39:21;;;;;;;;;;;;;;;30.07;31.03;100080.53;6290992;22;20019;-86
2023/07/26 13:42:16;;;;;;;2.50;0.20;;;;;;;34.26;26.43;100094.94;6290305;22;19926;-82
2023/07/26 13:45:10;;;;;;;0.25;0.20;;;;;;;36.23;22.70;100092.19;6290174;22;20366;-83
2023/07/26 13:48:02;;;;;;;2.25;0.20;;;;;;;35.34;24.88;100093.63;6290957;22;20030;-89
2023/07/26 13:50:54;;;;;;;0.95;0.30;;;;;;;35.07;24.44;100095.66;6291885;22;20023;-85
2023/07/26 13:53:46;;;;;;;;;;;;;;;33.58;26.07;100089.53;6291204;22;20019;-88
2023/07/26 13:56:40;;;;;;;1.95;0.50;;;;;;;31.44;25.80;100081.28;6291617;22;19907;-88
2023/07/26 13:59:35;;;;;;;0.40;0.22;;;;;;;29.69;31.21;100073.22;6293423;22;20018;-88
2023/07/26 14:02:27;;;;;;;;;;;;;;;28.91;30.24;100067.78;6296452;22;20030;-88
2023/07/26 14:05:22;;;;;;;0.90;0.20;;;;;;;28.63;34.62;100068.03;6292897;22;19907;-87
2023/07/26 14:08:16;;;;;;;1.00;0.50;;;;;;;28.22;34.84;100060.69;6289397;22;20505;-87
2023/07/26 14:11:13;;;;;;;1.02;0.50;;;;;;;28.16;36.07;100065.28;6288598;22;20019;-86
2023/07/26 14:14:02;;;;;;;1.13;0.45;;;;;;;28.25;36.55;100048.56;6288248;22;20026;-87
2023/07/26 14:16:57;;;;;;;3.67;0.68;;;;;;;28.27;36.33;100051.72;6290167;22;20026;-86
2023/07/26 14:19:49;;;;;;;;;;;;;;;28.04;36.85;100061.22;6282956;22;20023;-85
2023/07/26 14:22:41;;;;;;;5.30;1.33;;;;;;;27.84;38.69;100053.09;6291028;22;19911;-87
2023/07/26 14:25:33;;;;;;;13.00;4.10;;;;;;;27.82;40.35;100054.81;6289206;22;20023;-87
2023/07/26 14:28:25;;;;;;;7.40;1.35;;;;;;;27.74;38.70;100057.03;6289911;22;20346;-84
2023/07/26 14:31:14;;;;;;;2.67;0.73;;;;;;;27.74;38.12;100059.03;6287957;22;20350;-84
2023/07/26 14:34:06;;;;;;;2.10;0.70;;;;;;;27.77;37.60;100050.56;6289210;22;20019;-84
2023/07/26 14:37:01;;;;;;;4.47;1.33;;;;;;;27.81;37.56;100051.22;6290651;22;20027;-85
2023/07/26 14:39:53;;;;;;;;;;;;;;;27.89;37.46;100060.94;6282705;22;20015;-84
2023/07/26 14:42:47;;;;;;;4.68;1.00;;;;;;;27.93;37.31;100050.44;6289907;22;19907;-85
2023/07/26 14:45:37;;;;;;;;;;;;;;;27.93;37.88;100046.84;6290065;22;20023;-85
2023/07/26 14:48:31;;;;;;;3.22;0.75;;;;;;;27.76;37.86;100051.00;6287330;22;19911;-84
2023/07/26 14:51:23;;;;;;;;;;;;;;;27.79;37.75;100053.66;6292976;22;20472;-85
2023/07/26 14:54:18;;;;;;;5.78;0.90;;;;;;;27.79;37.82;100050.09;6292911;22;19911;-85
2023/07/26 14:57:10;;;;;;;1.60;0.50;;;;;;;27.65;37.55;100043.75;6291000;22;20019;-85
2023/07/26 15:00:02;;;;;;;4.13;0.50;;;;;;;27.88;37.93;100041.81;6291248;22;20036;-85
2023/07/26 15:02:54;;;;;;;2.90;0.80;;;;;;;28.01;37.64;100039.78;6292229;22;20022;-85
2023/07/26 15:05:49;;;;;;;3.35;0.43;;;;;;;27.97;34.63;100042.69;6292450;22;20030;-85
2023/07/26 15:08:44;;;;;;;1.63;0.98;;;;;;;28.13;36.91;100030.63;6289309;22;20477;-85
2023/07/26 15:11:38;;;;;;;0.88;0.68;;;;;;;28.18;34.13;100040.44;6291897;22;20489;-85
2023/07/26 15:14:30;;;;;;;;;;;;;;;28.34;36.08;100040.28;6291443;22;20085;-85
2023/07/26 15:17:25;;;;;;;0.80;0.43;;;;;;;28.12;36.45;100034.66;6289515;22;19907;-85
2023/07/26 15:20:19;;;;;;;1.25;0.65;;;;;;;27.98;35.76;100044.28;6279688;22;20355;-84
2023/07/26 15:23:12;;;;;;;1.88;0.50;;;;;;;28.00;36.51;100055.78;6292729;22;20022;-85
2023/07/26 15:26:01;;;;;;;1.80;0.63;;;;;;;27.81;35.56;100045.63;6288619;22;20022;-85
2023/07/26 15:28:56;;;;;;;2.67;0.80;;;;;;;27.83;35.70;100043.19;6287862;22;20026;-86
2023/07/26 15:31:48;;;;;;;0.88;0.50;;;;;;;27.88;34.94;100051.00;6291077;22;20354;-85
2023/07/26 15:34:40;;;;;;;1.17;0.52;;;;;;;27.96;36.75;100049.53;6289214;22;20022;-87
2023/07/26 15:37:35;;;;;;;4.20;0.85;;;;;;;27.92;37.01;100048.88;6291860;22;20034;-88
2023/07/26 15:40:28;;;;;;;;;;;;;;;27.90;36.62;100048.53;6289171;22;20019;-86
2023/07/26 15:43:22;;;;;;;1.73;0.95;;;;;;;27.79;35.94;100048.06;6289846;22;19907;-86
2023/07/26 15:46:12;;;;;;;;;;;;;;;27.88;36.37;100048.19;6288824;22;20023;-87
2023/07/26 15:49:01;;;;;;;4.38;0.75;;;;;;;27.84;36.60;100044.72;6288809;22;19915;-86
2023/07/26 15:52:00;;;;;;;1.48;0.50;;;;;;;27.72;36.82;100045.53;6289629;22;20022;-86
2023/07/26 15:54:54;;;;;;;2.20;0.50;;;;;;;27.71;35.79;100045.97;6288867;22;20022;-83
2023/07/26 15:57:44;;;;;;;;;;;;;;;27.61;36.64;100045.09;6289812;22;20026;-83
2023/07/26 16:00:36;;;;;;;1.77;0.40;;;;;;;27.58;35.55;100040.41;6288545;22;19907;-82
2023/07/26 16:03:30;;;;;;;0.73;0.38;;;;;;;27.63;36.04;100040.59;6289261;22;20477;-83
2023/07/26 16:06:22;;;;;;;0.68;0.43;;;;;;;27.78;36.70;100040.16;6290228;22;20023;-82
2023/07/26 16:09:16;;;;;;;2.22;0.40;;;;;;;27.82;36.06;100041.59;6283561;22;20027;-82
2023/07/26 16:12:12;;;;;;;2.58;0.60;;;;;;;27.78;37.04;100046.53;6290375;22;20211;-81
2023/07/26 16:15:04;;;;;;;2.25;0.40;;;;;;;27.71;36.81;100035.59;6288956;22;20058;-81
2023/07/26 16:17:56;;;;;;;;;;;;;;;27.81;36.93;100028.88;6289482;22;20027;-81
2023/07/26 16:20:49;;;;;;;7.60;0.30;;;;;;;27.58;36.42;100029.22;6287659;22;19907;-81
2023/07/26 16:23:43;;;;;;;0.98;0.50;;;;;;;27.64;37.23;100039.38;6289462;22;20501;-81
2023/07/26 16:26:35;;;;;;;;;;;;;;;27.58;36.56;100038.38;6288988;22;20026;-79
2023/07/26 16:29:30;;;;;;;3.95;0.50;;;;;;;27.08;38.10;100036.31;6287065;22;19911;-79
2023/07/26 16:32:24;;;;;;;1.00;0.80;;;;;;;26.76;38.77;100042.03;6289722;22;20038;-79
2023/07/26 16:35:14;;;;;;;;;;;;;;;26.63;40.15;100050.34;6290829;22;20019;-79
2023/07/26 16:38:08;;;;;;;3.10;0.65;;;;;;;26.60;39.96;100044.88;6288615;22;19907;-79
2023/07/26 16:41:01;;;;;;;;;;;;;;;26.64;40.01;100048.31;6290769;22;20018;-79
2023/07/26 16:43:55;;;;;;;0.75;0.55;;;;;;;26.66;39.79;100054.25;6288684;22;19907;-79
2023/07/26 16:46:47;;;;;;;1.00;0.40;;;;;;;26.54;40.77;100054.97;6290304;22;20031;-79
2023/07/26 16:49:39;;;;;;;1.35;0.80;;;;;;;26.42;40.52;100061.28;6282391;22;20019;-79
2023/07/26 16:52:32;;;;;;;;;;;;;;;26.32;40.48;100051.97;6291404;22;20042;-79
2023/07/26 16:55:26;;;;;;;2.38;0.68;;;;;;;26.28;41.52;100062.44;6290642;22;19907;-79
2023/07/26 16:58:21;;;;;;;2.25;0.95;;;;;;;26.36;41.72;100063.84;6287122;22;20038;-79
2023/07/26 17:01:15;;;;;;;1.05;0.50;;;;;;;26.41;41.14;100065.31;6290318;22;20030;-79
2023/07/26 17:04:09;;;;;;;0.82;0.40;;;;;;;26.46;41.35;100067.56;6289926;22;20018;-79
2023/07/26 17:07:02;;;;;;;;;;;;;;;26.53;41.14;100078.50;6289694;22;20026;-78
2023/07/26 17:09:56;;;;;;;2.90;0.60;;;;;;;26.51;41.46;100080.97;6280971;22;19911;-79
2023/07/26 17:12:46;;;;;;;;;;;;;;;26.33;42.33;100085.00;6288150;22;20022;-79
2023/07/26 17:15:43;;;;;;;2.85;0.30;;;;;;;26.31;41.26;100086.69;6287286;22;19907;-78
2023/07/26 17:18:36;;;;;;;1.00;0.47;;;;;;;26.35;41.52;100088.16;6285965;22;20039;-78
2023/07/26 17:21:30;;;;;;;0.70;0.50;;;;;;;26.35;41.79;100090.16;6286698;22;20023;-78
2023/07/26 17:24:25;;;;;;;0.80;0.55;;;;;;;26.45;40.76;100096.66;6288235;22;20367;-79
2023/07/26 17:27:19;;;;;;;0.65;0.60;;;;;;;26.42;42.00;100089.94;6289843;22;20426;-79
2023/07/26 17:30:11;;;;;;;;;;;;;;;26.39;41.18;100091.63;6287708;22;20484;-80
2023/07/26 17:33:06;;;;;;;3.30;0.50;;;;;;;26.42;41.38;100101.09;6286176;22;19911;-80
2023/07/26 17:35:59;;;;;;;0.70;0.38;;;;;;;26.39;41.22;100105.56;6286357;22;20042;-79
2023/07/26 17:38:54;;;;;;;3.42;0.90;;;;;;;26.44;41.38;100103.47;6291955;22;20033;-81
2023/07/26 17:41:46;;;;;;;;;;;;;;;26.51;41.58;100108.88;6290523;22;20023;-79
2023/07/26 17:44:40;;;;;;;8.38;1.45;;;;;;;26.47;41.92;100116.50;6289477;22;19911;-81
2023/07/26 17:47:32;;;;;;;;;;;;;;;26.44;41.85;100111.81;6291415;22;20026;-80
2023/07/26 17:50:25;;;;;;;4.55;1.10;;;;;;;26.36;42.60;100109.22;6289673;22;20245;-80
2023/07/26 17:53:19;;;;;;;6.20;1.20;;;;;;;26.29;42.30;100112.19;6288322;22;20022;-80
2023/07/26 17:56:13;;;;;;;4.28;1.23;;;;;;;26.23;42.49;100116.72;6290264;22;20039;-80
2023/07/26 17:59:05;;;;;;;5.57;1.35;;;;;;;26.26;42.94;100124.19;6283817;22;20018;-80
2023/07/26 18:02:00;;;;;;;1.77;1.38;;;;;;;26.32;42.33;100124.47;6287769;22;20377;-79
2023/07/26 18:04:53;;;;;;;;;;;;;;;26.41;42.74;100135.03;6289474;22;20023;-79
2023/07/26 18:07:47;;;;;;;2.85;1.13;;;;;;;26.45;42.92;100130.91;6289218;22;19907;-79
2023/07/26 18:10:42;;;;;;;3.13;1.17;;;;;;;26.49;43.29;100134.41;6289762;22;20038;-79
2023/07/26 18:13:34;;;;;;;1.65;0.70;;;;;;;26.48;42.91;100138.41;6289668;22;20023;-79
2023/07/26 18:16:28;;;;;;;4.07;0.95;;;;;;;26.46;42.92;100148.44;6289963;22;20038;-79
2023/07/26 18:19:23;;;;;;;11.23;2.08;;;;;;;26.47;43.27;100144.41;6283690;22;20026;-79
2023/07/26 18:22:17;;;;;;;5.10;1.58;;;;;;;26.48;43.12;100152.34;6291378;22;20019;-80
2023/07/26 18:25:12;;;;;;;12.90;2.45;;;;;;;26.48;43.58;100165.50;6290760;22;20022;-80
2023/07/26 18:28:04;;;;;;;5.15;1.27;;;;;;;26.47;43.83;100155.56;6291511;22;20026;-80
2023/07/26 18:31:06;;;;;;;;;;;;;;;26.49;43.89;100167.84;6291879;22;20023;-79
2023/07/26 18:33:58;;;;;;;7.60;2.00;;;;;;;26.47;44.37;100164.72;6288768;22;19911;-79
2023/07/26 18:36:53;;;;;;;3.13;1.17;;;;;;;26.47;44.16;100164.72;6291742;22;20019;-79